| time (UTC) | temp C | wind direction | speed KPH | gust KPH | rain 1hr cm | rain 24hr cm | rain mn cm | humidity % | barometer mb |
| 20260503220624 | 11 | 197 | 1.6 | 8.0 | 0.25 | 4.04 | 2.03 | 98 | 1013.7 |
| 20260503215703 | 10 | 247 | 1.6 | 12.9 | 0.25 | 3.96 | 1.93 | 98 | 1013.5 |
| 20260503214803 | 10 | 166 | 1.6 | 12.9 | 0.33 | 3.94 | 1.91 | 98 | 1013.4 |
| 20260503213924 | 10 | 228 | 1.6 | 9.7 | 0.28 | 3.91 | 1.83 | 98 | 1013.3 |
| 20260503213024 | 10 | 222 | 1.6 | 16.1 | 0.25 | 3.94 | 1.83 | 97 | 1013.4 |
| 20260503212403 | 10 | 214 | 1.6 | 16.1 | 0.30 | 3.96 | 1.83 | 97 | 1013.2 |
| 20260503211503 | 10 | 212 | 1.6 | 16.1 | 0.33 | 3.99 | 1.83 | 97 | 1013.2 |
| 20260503210603 | 10 | 219 | 1.6 | 6.4 | 0.36 | 3.99 | 1.80 | 98 | 1012.8 |
| 20260503205724 | 10 | 159 | 1.6 | 11.3 | 0.28 | 3.91 | 1.68 | 97 | 1012.6 |
| 20260503204803 | 10 | 269 | 3.2 | 9.7 | 0.23 | 3.81 | 1.55 | 98 | 1012.6 |
| 20260503203924 | 10 | 243 | 1.6 | 9.7 | 0.23 | 3.91 | 1.55 | 98 | 1012.6 |
| 20260503203003 | 10 | 149 | 1.6 | 9.7 | 0.23 | 3.94 | 1.55 | 97 | 1012.4 |
| 20260503202403 | 11 | 189 | 1.6 | 9.7 | 0.20 | 3.91 | 1.52 | 97 | 1012.4 |
| 20260503201503 | 10 | 42 | 1.6 | 16.1 | 0.18 | 3.89 | 1.50 | 97 | 1012.3 |
| 20260503200603 | 10 | 210 | 1.6 | 11.3 | 0.10 | 3.81 | 1.40 | 97 | 1012.2 |
| 20260503195703 | 10 | 204 | 1.6 | 9.7 | 0.20 | 3.81 | 1.40 | 97 | 1012.1 |
| 20260503194803 | 10 | 222 | 1.6 | 12.9 | 0.15 | 3.76 | 1.35 | 97 | 1012.0 |
| 20260503193924 | 10 | 342 | 1.6 | 14.5 | 0.15 | 3.76 | 1.35 | 97 | 1012.1 |
| 20260503193003 | 10 | 231 | 1.6 | 11.3 | 0.15 | 3.73 | 1.32 | 97 | 1011.8 |
| 20260503192403 | 10 | 266 | 1.6 | 20.9 | 0.15 | 3.73 | 1.32 | 97 | 1011.9 |
| 20260503191503 | 10 | 267 | 1.6 | 20.9 | 0.15 | 3.73 | 1.32 | 97 | 1011.8 |
| 20260503190604 | 10 | 260 | 3.2 | 29.0 | 0.13 | 3.71 | 1.30 | 97 | 1011.9 |
| 20260503185724 | 10 | 179 | 3.2 | 29.0 | 0.05 | 3.63 | 1.19 | 97 | 1011.9 |
| 20260503184803 | 10 | 256 | 3.2 | 17.7 | 0.13 | 3.63 | 1.19 | 97 | 1011.8 |
| 20260503183903 | 10 | 227 | 1.6 | 8.0 | 0.13 | 3.61 | 1.17 | 97 | 1011.9 |
| 20260503183003 | 10 | 263 | 3.2 | 12.9 | 0.13 | 3.61 | 1.17 | 97 | 1011.5 |
| 20260503182403 | 10 | 274 | 3.2 | 17.7 | 0.13 | 3.61 | 1.17 | 97 | 1011.6 |
| 20260503181504 | 10 | 275 | 1.6 | 24.1 | 0.13 | 3.61 | 1.17 | 97 | 1011.7 |
| 20260503180603 | 10 | 7 | 3.2 | 19.3 | 0.13 | 3.63 | 1.17 | 97 | 1011.6 |
| 20260503175703 | 10 | 195 | 3.2 | 14.5 | 0.08 | 3.61 | 1.14 | 97 | 1011.8 |
| 20260503174803 | 10 | 208 | 3.2 | 11.3 | 0.03 | 3.56 | 1.09 | 97 | 1011.8 |
| 20260503173903 | 10 | 3 | 3.2 | 17.7 | 0.00 | 3.53 | 1.07 | 97 | 1011.7 |
| 20260503173003 | 10 | 54 | 1.6 | 11.3 | 0.03 | 3.58 | 1.07 | 97 | 1011.8 |
| 20260503172403 | 10 | 260 | 3.2 | 19.3 | 0.03 | 3.58 | 1.07 | 97 | 1011.9 |
| 20260503171524 | 10 | 299 | 3.2 | 16.1 | 0.03 | 3.61 | 1.07 | 97 | 1011.9 |
| 20260503170603 | 10 | 247 | 3.2 | 19.3 | 0.03 | 3.63 | 1.07 | 97 | 1011.9 |
| 20260503150603 | 10 | 229 | 1.6 | 12.9 | 0.86 | 3.53 | 0.76 | 97 | 1012.5 |
| 20260503130603 | 10 | 15 | 1.6 | 12.9 | 0.15 | 2.36 | 2.36 | 97 | 1013.0 |
| 20260503110603 | 10 | 26 | 4.8 | 19.3 | 0.05 | 2.21 | 2.21 | 97 | 1012.7 |
| 20260503081524 | 11 | 6 | 4.8 | 22.5 | 0.03 | 0.89 | 0.89 | 89 | 1011.5 |
| 20260503080603 | 11 | 48 | 4.8 | 22.5 | 0.03 | 0.89 | 0.89 | 90 | 1011.3 |
| 20260503072403 | 11 | 16 | 4.8 | 12.9 | 0.00 | 0.89 | 0.86 | 91 | 1011.2 |
| 20260503054803 | 12 | 51 | 4.8 | 22.5 | 0.03 | 1.27 | 0.79 | 81 | 1011.4 |
| 20260503053904 | 12 | 81 | 6.4 | 16.1 | 0.03 | 1.42 | 0.79 | 77 | 1010.9 |
| 20260503053003 | 13 | 64 | 6.4 | 32.2 | 0.03 | 1.55 | 0.79 | 76 | 1010.9 |
| 20260503052424 | 13 | 95 | 4.8 | 24.1 | 0.00 | 1.55 | 0.79 | 75 | 1011.0 |
| 20260503051503 | 13 | 34 | 4.8 | 17.7 | 0.00 | 1.55 | 0.79 | 75 | 1010.9 |
| 20260503050624 | 12 | 25 | 6.4 | 24.1 | 0.00 | 1.65 | 0.79 | 79 | 1010.8 |
| 20260503045703 | 12 | 78 | 4.8 | 19.3 | 0.00 | 1.65 | 0.79 | 78 | 1010.8 |
| 20260503044804 | 13 | 57 | 4.8 | 19.3 | 0.00 | 1.70 | 0.79 | 77 | 1010.8 |
| 20260503043903 | 12 | 44 | 6.4 | 19.3 | 0.00 | 1.80 | 0.79 | 77 | 1010.8 |
| 20260503043004 | 12 | 28 | 3.2 | 16.1 | 0.00 | 1.85 | 0.79 | 78 | 1010.7 |
| 20260503042403 | 12 | 60 | 4.8 | 20.9 | 0.00 | 2.01 | 0.79 | 78 | 1010.8 |
| 20260503041525 | 12 | 66 | 6.4 | 25.7 | 0.00 | 2.06 | 0.79 | 77 | 1010.9 |
| 20260503040603 | 12 | 22 | 4.8 | 25.7 | 0.00 | 2.06 | 0.79 | 78 | 1010.9 |
| 20260503035703 | 13 | 51 | 6.4 | 25.7 | 0.00 | 2.08 | 0.79 | 78 | 1011.0 |
| 20260503034804 | 13 | 86 | 4.8 | 17.7 | 0.00 | 2.11 | 0.79 | 77 | 1011.1 |
| 20260503033924 | 12 | 63 | 4.8 | 16.1 | 0.00 | 2.13 | 0.79 | 80 | 1010.9 |
| 20260503033003 | 12 | 61 | 6.4 | 20.9 | 0.00 | 2.16 | 0.79 | 81 | 1011.2 |
| 20260503032403 | 12 | 50 | 6.4 | 29.0 | 0.00 | 2.18 | 0.79 | 82 | 1011.1 |
| 20260503031503 | 12 | 49 | 4.8 | 20.9 | 0.00 | 2.24 | 0.79 | 84 | 1011.1 |
| 20260503030603 | 12 | 4 | 6.4 | 22.5 | 0.00 | 2.29 | 0.79 | 85 | 1010.9 |
| 20260503025703 | 12 | 53 | 4.8 | 19.3 | 0.00 | 2.29 | 0.79 | 83 | 1011.1 |
| 20260503024803 | 12 | 58 | 6.4 | 22.5 | 0.00 | 2.29 | 0.79 | 81 | 1011.2 |
| 20260503023924 | 11 | 18 | 6.4 | 22.5 | 0.00 | 2.29 | 0.79 | 86 | 1011.1 |
| 20260503023003 | 11 | 35 | 6.4 | 29.0 | 0.00 | 2.29 | 0.79 | 93 | 1011.2 |
| 20260503022403 | 11 | 29 | 6.4 | 29.0 | 0.00 | 2.29 | 0.79 | 94 | 1011.3 |
| 20260503021503 | 11 | 25 | 6.4 | 27.4 | 0.00 | 2.29 | 0.79 | 94 | 1011.4 |
| 20260503020603 | 11 | 11 | 4.8 | 22.5 | 0.00 | 2.29 | 0.79 | 95 | 1011.5 |
| 20260503015725 | 10 | 35 | 6.4 | 27.4 | 0.00 | 2.29 | 0.79 | 94 | 1011.4 |
| 20260503014804 | 10 | 57 | 4.8 | 17.7 | 0.00 | 2.29 | 0.79 | 95 | 1011.2 |
| 20260503013903 | 10 | 52 | 6.4 | 22.5 | 0.00 | 2.29 | 0.79 | 95 | 1011.4 |
| 20260503013004 | 10 | 67 | 3.2 | 22.5 | 0.00 | 2.29 | 0.79 | 94 | 1011.2 |
| 20260503012424 | 10 | 70 | 4.8 | 16.1 | 0.00 | 2.29 | 0.79 | 95 | 1011.4 |
| 20260503011503 | 10 | 46 | 4.8 | 16.1 | 0.00 | 2.29 | 0.79 | 95 | 1011.4 |
| 20260503010603 | 10 | 79 | 4.8 | 14.5 | 0.00 | 2.29 | 0.79 | 95 | 1011.3 |
| 20260503005724 | 10 | 28 | 6.4 | 22.5 | 0.00 | 2.29 | 0.79 | 95 | 1011.3 |
| 20260503004803 | 10 | 29 | 6.4 | 27.4 | 0.00 | 2.29 | 0.79 | 95 | 1011.2 |
| 20260503003903 | 10 | 25 | 4.8 | 24.1 | 0.00 | 2.29 | 0.79 | 95 | 1011.3 |
| 20260503003025 | 10 | 50 | 3.2 | 14.5 | 0.00 | 2.29 | 0.79 | 96 | 1011.1 |
| 20260503002403 | 10 | 43 | 4.8 | 14.5 | 0.00 | 2.29 | 0.79 | 96 | 1011.2 |
| 20260503001503 | 10 | 17 | 6.4 | 19.3 | 0.00 | 2.29 | 0.79 | 96 | 1011.1 |
| 20260503000603 | 10 | 61 | 4.8 | 19.3 | 0.00 | 2.29 | 0.79 | 95 | 1011.0 |
| 20260502235703 | 10 | 62 | 4.8 | 19.3 | 0.00 | 2.31 | 0.79 | 96 | 1010.9 |
| 20260502234824 | 10 | 52 | 4.8 | 22.5 | 0.00 | 2.31 | 0.79 | 96 | 1011.0 |
| 20260502233925 | 10 | 16 | 4.8 | 22.5 | 0.00 | 2.34 | 0.79 | 96 | 1011.1 |
| 20260502233024 | 9 | 66 | 4.8 | 20.9 | 0.00 | 2.46 | 0.79 | 96 | 1011.2 |
| 20260502232403 | 9 | 52 | 4.8 | 20.9 | 0.00 | 2.49 | 0.79 | 96 | 1011.4 |
| 20260502231525 | 9 | 355 | 4.8 | 17.7 | 0.03 | 2.57 | 0.79 | 96 | 1011.4 |
| 20260502230603 | 9 | 54 | 4.8 | 12.9 | 0.03 | 2.57 | 0.79 | 96 | 1011.5 |
| 20260502225704 | 9 | 3 | 4.8 | 16.1 | 0.03 | 2.57 | 0.79 | 97 | 1011.6 |
| 20260502224803 | 9 | 19 | 3.2 | 12.9 | 0.05 | 2.57 | 0.79 | 97 | 1011.5 |
| 20260502223903 | 8 | 356 | 4.8 | 12.9 | 0.05 | 2.57 | 0.79 | 97 | 1011.3 |
| 20260502223004 | 8 | 27 | 3.2 | 17.7 | 0.13 | 2.57 | 0.79 | 97 | 1011.4 |
| 20260502222424 | 8 | 35 | 3.2 | 16.1 | 0.15 | 2.57 | 0.79 | 97 | 1011.3 |
| 20260502221503 | 8 | 36 | 3.2 | 16.1 | 0.15 | 2.54 | 0.76 | 97 | 1011.4 |